AAY1786 KPGD-KCAK
Flight info
| Callsign | AAY1786 |
|---|---|
| Flight time | 2h 13m |
| Altitude | 36000 |
| Route | ROGAN LAL DOFFY CAMJO IRQ SPA J85 HVQ JPU ZZIPS1 |
| Aircraft | A319/M-SDE3FGHIRWY/LB1 |
Departure
| Time | 2026-05-05 15:30 |
|---|---|
| Airport | Punta Gorda Airport (KPGD) |
Arrival
| Time | 2026-05-05 17:44 |
|---|---|
| Airport | Akron Canton Regional Airport (KCAK) |
| Time | Latitude | Longitude | Altitude | Speed | Heading |
|---|---|---|---|---|---|
| 2026-05-05 15:06 | 26.91614 | -81.99703 | 30 ft | 0 kts | 240° |
| 2026-05-05 15:22 | 26.91617 | -81.99697 | 31 ft | 3 kts | 240° |
| 2026-05-05 15:22 | 26.91631 | -81.99671 | 29 ft | 4 kts | 240° |
| 2026-05-05 15:22 | 26.91641 | -81.99645 | 28 ft | 4 kts | 267° |
| 2026-05-05 15:22 | 26.91640 | -81.99627 | 28 ft | 4 kts | 304° |
| 2026-05-05 15:23 | 26.91630 | -81.99616 | 28 ft | 1 kts | 329° |
| 2026-05-05 15:23 | 26.91631 | -81.99617 | 28 ft | 0 kts | 329° |
| 2026-05-05 15:25 | 26.91666 | -81.99640 | 28 ft | 11 kts | 331° |
| 2026-05-05 15:25 | 26.91671 | -81.99643 | 28 ft | 11 kts | 330° |
| 2026-05-05 15:26 | 26.91693 | -81.99658 | 28 ft | 11 kts | 330° |
| 2026-05-05 15:26 | 26.91770 | -81.99710 | 27 ft | 14 kts | 329° |
| 2026-05-05 15:26 | 26.91859 | -81.99769 | 27 ft | 16 kts | 329° |
| 2026-05-05 15:26 | 26.91951 | -81.99831 | 27 ft | 15 kts | 329° |
| 2026-05-05 15:27 | 26.92040 | -81.99889 | 28 ft | 15 kts | 329° |
| 2026-05-05 15:27 | 26.92130 | -81.99949 | 27 ft | 15 kts | 329° |
| 2026-05-05 15:27 | 26.92217 | -82.00007 | 29 ft | 14 kts | 329° |
| 2026-05-05 15:27 | 26.92268 | -82.00039 | 30 ft | 0 kts | 335° |
| 2026-05-05 15:28 | 26.92268 | -82.00040 | 30 ft | 0 kts | 335° |
| 2026-05-05 15:28 | 26.92274 | -82.00041 | 30 ft | 6 kts | 348° |
| 2026-05-05 15:28 | 26.92327 | -81.99983 | 30 ft | 11 kts | 60° |
| 2026-05-05 15:28 | 26.92338 | -81.99906 | 30 ft | 11 kts | 123° |
| 2026-05-05 15:29 | 26.92278 | -81.99856 | 28 ft | 0 kts | 150° |
| 2026-05-05 15:29 | 26.92275 | -81.99854 | 28 ft | 3 kts | 150° |
| 2026-05-05 15:30 | 26.92091 | -81.99734 | 26 ft | 72 kts | 149° |
| 2026-05-05 15:30 | 26.91427 | -81.99291 | 34 ft | 146 kts | 149° |
| 2026-05-05 15:30 | 26.90460 | -81.98657 | 421 ft | 163 kts | 150° |
| 2026-05-05 15:30 | 26.89464 | -81.98078 | 1256 ft | 159 kts | 153° |
| 2026-05-05 15:31 | 26.88489 | -81.97584 | 2029 ft | 148 kts | 156° |
| 2026-05-05 15:31 | 26.87601 | -81.96954 | 2402 ft | 162 kts | 126° |
| 2026-05-05 15:31 | 26.87198 | -81.95706 | 2649 ft | 183 kts | 98° |
| 2026-05-05 15:31 | 26.87062 | -81.94194 | 2896 ft | 208 kts | 93° |
| 2026-05-05 15:32 | 26.87353 | -81.92532 | 3199 ft | 232 kts | 62° |
| 2026-05-05 15:32 | 26.88501 | -81.91146 | 3575 ft | 257 kts | 32° |
| 2026-05-05 15:32 | 26.90229 | -81.90503 | 4269 ft | 269 kts | 4° |
| 2026-05-05 15:32 | 26.92119 | -81.90498 | 5157 ft | 273 kts | 0° |
| 2026-05-05 15:33 | 26.94032 | -81.90457 | 6058 ft | 277 kts | 2° |
| 2026-05-05 15:33 | 26.95967 | -81.90374 | 6938 ft | 280 kts | 2° |
| 2026-05-05 15:33 | 26.97927 | -81.90281 | 7783 ft | 284 kts | 2° |
| 2026-05-05 15:33 | 26.99924 | -81.90192 | 8581 ft | 289 kts | 2° |
| 2026-05-05 15:34 | 27.01921 | -81.90111 | 9340 ft | 293 kts | 1° |
| 2026-05-05 15:34 | 27.03975 | -81.90030 | 10099 ft | 298 kts | 1° |
| 2026-05-05 15:34 | 27.06117 | -81.89947 | 10431 ft | 319 kts | 1° |
| 2026-05-05 15:34 | 27.08419 | -81.89863 | 10631 ft | 342 kts | 1° |
| 2026-05-05 15:35 | 27.10876 | -81.89778 | 10791 ft | 364 kts | 1° |
| 2026-05-05 15:35 | 27.13453 | -81.89690 | 11244 ft | 374 kts | 1° |
| 2026-05-05 15:35 | 27.16067 | -81.89601 | 11882 ft | 378 kts | 0° |
| 2026-05-05 15:35 | 27.18713 | -81.89511 | 12558 ft | 381 kts | 0° |
| 2026-05-05 15:36 | 27.21380 | -81.89422 | 13217 ft | 384 kts | 0° |
| 2026-05-05 15:36 | 27.24068 | -81.89336 | 13865 ft | 387 kts | 359° |
| 2026-05-05 15:36 | 27.26726 | -81.89555 | 14484 ft | 388 kts | 350° |
| 2026-05-05 15:36 | 27.29407 | -81.89993 | 15112 ft | 391 kts | 350° |
| 2026-05-05 15:37 | 27.32109 | -81.90437 | 15721 ft | 394 kts | 349° |
| 2026-05-05 15:37 | 27.34826 | -81.90884 | 16324 ft | 396 kts | 349° |
| 2026-05-05 15:37 | 27.37565 | -81.91330 | 16910 ft | 399 kts | 349° |
| 2026-05-05 15:37 | 27.40323 | -81.91779 | 17483 ft | 402 kts | 349° |
| 2026-05-05 15:38 | 27.43097 | -81.92235 | 18050 ft | 404 kts | 349° |
| 2026-05-05 15:38 | 27.45893 | -81.92696 | 18587 ft | 407 kts | 349° |
| 2026-05-05 15:38 | 27.48704 | -81.93157 | 19104 ft | 409 kts | 349° |
| 2026-05-05 15:38 | 27.51533 | -81.93619 | 19592 ft | 412 kts | 349° |
| 2026-05-05 15:39 | 27.54380 | -81.94087 | 20062 ft | 415 kts | 349° |
| 2026-05-05 15:39 | 27.57244 | -81.94561 | 20522 ft | 417 kts | 349° |
| 2026-05-05 15:39 | 27.60123 | -81.95036 | 20961 ft | 419 kts | 349° |
| 2026-05-05 15:39 | 27.63018 | -81.95511 | 21378 ft | 422 kts | 349° |
| 2026-05-05 15:40 | 27.65928 | -81.95990 | 21790 ft | 424 kts | 349° |
| 2026-05-05 15:40 | 27.68860 | -81.96472 | 22186 ft | 426 kts | 349° |
| 2026-05-05 15:40 | 27.71800 | -81.96957 | 22559 ft | 428 kts | 348° |
| 2026-05-05 15:40 | 27.74755 | -81.97444 | 22934 ft | 430 kts | 348° |
| 2026-05-05 15:41 | 27.77729 | -81.97935 | 23291 ft | 432 kts | 348° |
| 2026-05-05 15:41 | 27.80672 | -81.98420 | 23627 ft | 434 kts | 348° |
| 2026-05-05 15:41 | 27.83663 | -81.98914 | 23947 ft | 436 kts | 348° |
| 2026-05-05 15:41 | 27.86668 | -81.99415 | 24262 ft | 437 kts | 348° |
| 2026-05-05 15:42 | 27.89688 | -81.99919 | 24565 ft | 439 kts | 348° |
| 2026-05-05 15:42 | 27.92717 | -82.00421 | 24872 ft | 441 kts | 348° |
| 2026-05-05 15:42 | 27.95766 | -82.00924 | 25172 ft | 442 kts | 348° |
| 2026-05-05 15:42 | 27.98789 | -82.01542 | 25462 ft | 441 kts | 342° |
| 2026-05-05 15:43 | 28.01709 | -82.02609 | 25741 ft | 441 kts | 338° |
| 2026-05-05 15:43 | 28.04603 | -82.03770 | 26021 ft | 443 kts | 338° |
| 2026-05-05 15:43 | 28.07515 | -82.04939 | 26307 ft | 444 kts | 338° |
| 2026-05-05 15:43 | 28.10434 | -82.06110 | 26588 ft | 446 kts | 338° |
| 2026-05-05 15:44 | 28.13359 | -82.07284 | 26873 ft | 447 kts | 338° |
| 2026-05-05 15:44 | 28.16298 | -82.08463 | 27135 ft | 449 kts | 338° |
| 2026-05-05 15:44 | 28.19245 | -82.09644 | 27400 ft | 450 kts | 338° |
| 2026-05-05 15:44 | 28.22171 | -82.10813 | 27658 ft | 452 kts | 338° |
| 2026-05-05 15:45 | 28.25141 | -82.12002 | 27913 ft | 453 kts | 338° |
| 2026-05-05 15:45 | 28.28111 | -82.13190 | 28263 ft | 452 kts | 338° |
| 2026-05-05 15:45 | 28.31071 | -82.14374 | 28656 ft | 451 kts | 338° |
| 2026-05-05 15:45 | 28.34025 | -82.15561 | 29046 ft | 449 kts | 338° |
| 2026-05-05 15:46 | 28.36967 | -82.16748 | 29417 ft | 448 kts | 338° |
| 2026-05-05 15:46 | 28.39898 | -82.17932 | 29796 ft | 446 kts | 338° |
| 2026-05-05 15:46 | 28.42824 | -82.19110 | 30184 ft | 445 kts | 338° |
| 2026-05-05 15:46 | 28.45739 | -82.20281 | 30575 ft | 443 kts | 338° |
| 2026-05-05 15:47 | 28.48638 | -82.21445 | 30975 ft | 441 kts | 338° |
| 2026-05-05 15:47 | 28.50548 | -82.22214 | 31246 ft | 439 kts | 338° |
| 2026-05-05 15:47 | 28.54390 | -82.23766 | 31804 ft | 436 kts | 338° |
| 2026-05-05 15:47 | 28.57244 | -82.24920 | 32214 ft | 433 kts | 338° |
| 2026-05-05 15:48 | 28.60037 | -82.26051 | 32606 ft | 431 kts | 338° |
| 2026-05-05 15:48 | 28.62886 | -82.27202 | 33002 ft | 428 kts | 338° |
| 2026-05-05 15:48 | 28.65689 | -82.28333 | 33391 ft | 426 kts | 338° |
| 2026-05-05 15:48 | 28.68474 | -82.29456 | 33784 ft | 423 kts | 338° |
| 2026-05-05 15:49 | 28.71241 | -82.30573 | 34160 ft | 421 kts | 338° |
| 2026-05-05 15:49 | 28.73996 | -82.31688 | 34528 ft | 419 kts | 338° |
| 2026-05-05 15:49 | 28.76701 | -82.32786 | 34868 ft | 417 kts | 338° |
| 2026-05-05 15:49 | 28.79430 | -82.33894 | 35188 ft | 416 kts | 338° |
| 2026-05-05 15:50 | 28.82154 | -82.34998 | 35492 ft | 415 kts | 338° |
| 2026-05-05 15:50 | 28.84871 | -82.36095 | 35795 ft | 413 kts | 338° |
| 2026-05-05 15:50 | 28.87580 | -82.37192 | 36033 ft | 413 kts | 338° |
| 2026-05-05 15:51 | 28.92994 | -82.39398 | 36109 ft | 413 kts | 338° |
| 2026-05-05 15:51 | 28.98409 | -82.41612 | 36122 ft | 413 kts | 337° |
| 2026-05-05 15:52 | 29.03831 | -82.43824 | 36120 ft | 413 kts | 338° |
| 2026-05-05 15:52 | 29.09247 | -82.46026 | 36114 ft | 413 kts | 337° |
| 2026-05-05 15:53 | 29.14667 | -82.48234 | 36117 ft | 413 kts | 337° |
| 2026-05-05 15:53 | 29.20076 | -82.50449 | 36123 ft | 413 kts | 337° |
| 2026-05-05 15:54 | 29.25517 | -82.52564 | 36118 ft | 415 kts | 343° |
| 2026-05-05 15:54 | 29.31282 | -82.53430 | 36127 ft | 419 kts | 349° |
| 2026-05-05 15:55 | 29.37042 | -82.54151 | 36126 ft | 419 kts | 349° |
| 2026-05-05 15:55 | 29.42843 | -82.54885 | 36128 ft | 419 kts | 349° |
| 2026-05-05 15:56 | 29.48638 | -82.55619 | 36127 ft | 419 kts | 349° |
| 2026-05-05 15:56 | 29.54441 | -82.56351 | 36126 ft | 419 kts | 349° |
| 2026-05-05 15:57 | 29.60234 | -82.57082 | 36130 ft | 419 kts | 349° |
| 2026-05-05 15:57 | 29.66033 | -82.57810 | 36137 ft | 419 kts | 349° |
| 2026-05-05 15:58 | 29.71827 | -82.58544 | 36143 ft | 419 kts | 349° |
| 2026-05-05 15:58 | 29.77623 | -82.59285 | 36143 ft | 418 kts | 349° |
| 2026-05-05 15:59 | 29.83412 | -82.60024 | 36144 ft | 419 kts | 349° |
| 2026-05-05 15:59 | 29.89204 | -82.60755 | 36143 ft | 419 kts | 349° |
| 2026-05-05 16:00 | 29.94993 | -82.61484 | 36135 ft | 419 kts | 349° |
| 2026-05-05 16:00 | 30.00782 | -82.62218 | 36144 ft | 418 kts | 349° |
| 2026-05-05 16:01 | 30.06541 | -82.62959 | 36144 ft | 418 kts | 349° |
| 2026-05-05 16:01 | 30.12322 | -82.63694 | 36145 ft | 418 kts | 349° |
| 2026-05-05 16:02 | 30.18104 | -82.64433 | 36144 ft | 418 kts | 349° |
| 2026-05-05 16:02 | 30.23877 | -82.65172 | 36128 ft | 417 kts | 349° |
| 2026-05-05 16:03 | 30.29658 | -82.65911 | 36130 ft | 417 kts | 349° |
| 2026-05-05 16:03 | 30.35433 | -82.66657 | 36131 ft | 417 kts | 349° |
| 2026-05-05 16:04 | 30.41215 | -82.67397 | 36131 ft | 418 kts | 349° |
| 2026-05-05 16:04 | 30.46954 | -82.68129 | 36131 ft | 418 kts | 349° |
| 2026-05-05 16:05 | 30.52790 | -82.68346 | 36130 ft | 426 kts | 2° |
| 2026-05-05 16:05 | 30.58674 | -82.67411 | 36130 ft | 427 kts | 2° |
| 2026-05-05 16:06 | 30.64574 | -82.66475 | 36136 ft | 427 kts | 2° |
| 2026-05-05 16:06 | 30.70460 | -82.65537 | 36137 ft | 427 kts | 2° |
| 2026-05-05 16:07 | 30.76350 | -82.64599 | 36132 ft | 427 kts | 2° |
| 2026-05-05 16:07 | 30.82242 | -82.63661 | 36138 ft | 427 kts | 2° |
| 2026-05-05 16:08 | 30.88104 | -82.62723 | 36135 ft | 428 kts | 2° |
| 2026-05-05 16:08 | 30.94004 | -82.61780 | 36146 ft | 428 kts | 2° |
| 2026-05-05 16:09 | 30.98944 | -82.60993 | 36149 ft | 428 kts | 2° |
| 2026-05-05 16:09 | 31.04806 | -82.60059 | 36146 ft | 428 kts | 2° |
| 2026-05-05 16:10 | 31.10707 | -82.59114 | 36144 ft | 427 kts | 2° |
| 2026-05-05 16:10 | 31.16596 | -82.58166 | 36148 ft | 427 kts | 2° |
| 2026-05-05 16:11 | 31.22483 | -82.57217 | 36147 ft | 427 kts | 2° |
| 2026-05-05 16:12 | 31.34263 | -82.55336 | 36143 ft | 427 kts | 2° |
| 2026-05-05 16:13 | 31.48951 | -82.52966 | 36130 ft | 425 kts | 2° |
| 2026-05-05 16:13 | 31.54828 | -82.52009 | 36122 ft | 426 kts | 2° |
| 2026-05-05 16:14 | 31.66531 | -82.50109 | 36123 ft | 426 kts | 3° |
| 2026-05-05 16:15 | 31.78278 | -82.48194 | 36123 ft | 426 kts | 2° |
| 2026-05-05 16:16 | 31.90027 | -82.46291 | 36119 ft | 426 kts | 2° |
| 2026-05-05 16:17 | 31.98840 | -82.44845 | 36129 ft | 426 kts | 3° |
| 2026-05-05 16:18 | 32.07675 | -82.43405 | 36131 ft | 427 kts | 3° |
| 2026-05-05 16:19 | 32.16447 | -82.41964 | 36124 ft | 426 kts | 3° |
| 2026-05-05 16:19 | 32.25246 | -82.40518 | 36121 ft | 425 kts | 3° |
| 2026-05-05 16:20 | 32.36969 | -82.38588 | 36113 ft | 425 kts | 3° |
| 2026-05-05 16:22 | 32.51641 | -82.36176 | 36118 ft | 426 kts | 3° |
| 2026-05-05 16:23 | 32.63382 | -82.34215 | 36130 ft | 426 kts | 3° |
| 2026-05-05 16:23 | 32.72159 | -82.32771 | 36127 ft | 426 kts | 3° |
| 2026-05-05 16:24 | 32.78031 | -82.31792 | 36127 ft | 426 kts | 3° |
| 2026-05-05 16:25 | 32.86834 | -82.30326 | 36127 ft | 426 kts | 3° |
| 2026-05-05 16:25 | 32.95646 | -82.28857 | 36117 ft | 426 kts | 3° |
| 2026-05-05 16:26 | 33.07391 | -82.26892 | 36125 ft | 426 kts | 3° |
| 2026-05-05 16:27 | 33.13223 | -82.25917 | 36126 ft | 426 kts | 3° |
| 2026-05-05 16:27 | 33.19092 | -82.24934 | 36123 ft | 425 kts | 3° |
| 2026-05-05 16:28 | 33.24964 | -82.23946 | 36122 ft | 427 kts | 3° |
| 2026-05-05 16:28 | 33.30856 | -82.22952 | 36131 ft | 427 kts | 3° |
| 2026-05-05 16:29 | 33.36746 | -82.21959 | 36141 ft | 428 kts | 3° |
| 2026-05-05 16:29 | 33.42640 | -82.20963 | 36146 ft | 427 kts | 3° |
| 2026-05-05 16:30 | 33.48530 | -82.19972 | 36135 ft | 427 kts | 3° |
| 2026-05-05 16:30 | 33.54410 | -82.18979 | 36145 ft | 427 kts | 3° |
| 2026-05-05 16:31 | 33.60295 | -82.17975 | 36145 ft | 427 kts | 3° |
| 2026-05-05 16:31 | 33.66153 | -82.16987 | 36144 ft | 427 kts | 3° |
| 2026-05-05 16:32 | 33.72041 | -82.15990 | 36139 ft | 427 kts | 4° |
| 2026-05-05 16:32 | 33.77928 | -82.14959 | 36133 ft | 428 kts | 4° |
| 2026-05-05 16:33 | 33.83819 | -82.13923 | 36131 ft | 427 kts | 4° |
| 2026-05-05 16:33 | 33.89697 | -82.12890 | 36128 ft | 426 kts | 4° |
| 2026-05-05 16:34 | 33.95568 | -82.11867 | 36121 ft | 427 kts | 4° |
| 2026-05-05 16:34 | 34.01446 | -82.10839 | 36125 ft | 426 kts | 4° |
| 2026-05-05 16:35 | 34.07319 | -82.09808 | 36121 ft | 427 kts | 4° |
| 2026-05-05 16:35 | 34.13201 | -82.08764 | 36123 ft | 426 kts | 4° |
| 2026-05-05 16:36 | 34.19068 | -82.07726 | 36133 ft | 426 kts | 4° |
| 2026-05-05 16:36 | 34.24903 | -82.06697 | 36135 ft | 427 kts | 4° |
| 2026-05-05 16:37 | 34.30780 | -82.05666 | 36139 ft | 427 kts | 4° |
| 2026-05-05 16:37 | 34.36659 | -82.04633 | 36136 ft | 427 kts | 4° |
| 2026-05-05 16:38 | 34.42536 | -82.03590 | 36137 ft | 427 kts | 4° |
| 2026-05-05 16:38 | 34.48413 | -82.02542 | 36132 ft | 427 kts | 4° |
| 2026-05-05 16:39 | 34.54289 | -82.01490 | 36127 ft | 427 kts | 4° |
| 2026-05-05 16:39 | 34.60162 | -82.00440 | 36122 ft | 426 kts | 4° |
| 2026-05-05 16:40 | 34.66031 | -81.99395 | 36121 ft | 427 kts | 4° |
| 2026-05-05 16:40 | 34.71906 | -81.98350 | 36115 ft | 427 kts | 4° |
| 2026-05-05 16:41 | 34.77783 | -81.97305 | 36116 ft | 427 kts | 4° |
| 2026-05-05 16:41 | 34.83629 | -81.96249 | 36118 ft | 427 kts | 4° |
| 2026-05-05 16:42 | 34.89516 | -81.95189 | 36120 ft | 428 kts | 4° |
| 2026-05-05 16:42 | 34.95399 | -81.94131 | 36119 ft | 427 kts | 4° |
| 2026-05-05 16:43 | 35.01286 | -81.93079 | 36107 ft | 428 kts | 4° |
| 2026-05-05 16:43 | 35.07187 | -81.92532 | 36105 ft | 424 kts | 358° |
| 2026-05-05 16:44 | 35.13102 | -81.92269 | 36120 ft | 424 kts | 358° |
| 2026-05-05 16:44 | 35.19006 | -81.92001 | 36112 ft | 424 kts | 358° |
| 2026-05-05 16:45 | 35.24908 | -81.91729 | 36101 ft | 426 kts | 358° |
| 2026-05-05 16:45 | 35.30821 | -81.91445 | 36098 ft | 425 kts | 358° |
| 2026-05-05 16:46 | 35.36744 | -81.91182 | 36108 ft | 425 kts | 358° |
| 2026-05-05 16:46 | 35.42623 | -81.90914 | 36113 ft | 425 kts | 358° |
| 2026-05-05 16:47 | 35.48555 | -81.90640 | 36109 ft | 427 kts | 358° |
| 2026-05-05 16:47 | 35.54503 | -81.90372 | 36120 ft | 426 kts | 358° |
| 2026-05-05 16:48 | 35.60424 | -81.90115 | 36116 ft | 425 kts | 358° |
| 2026-05-05 16:48 | 35.66338 | -81.89844 | 36105 ft | 423 kts | 358° |
| 2026-05-05 16:49 | 35.72238 | -81.89566 | 36112 ft | 426 kts | 358° |
| 2026-05-05 16:49 | 35.78163 | -81.89279 | 36129 ft | 426 kts | 358° |
| 2026-05-05 16:50 | 35.84118 | -81.89000 | 36129 ft | 428 kts | 358° |
| 2026-05-05 16:50 | 35.90006 | -81.88729 | 36123 ft | 424 kts | 358° |
| 2026-05-05 16:51 | 35.95897 | -81.88459 | 36125 ft | 424 kts | 358° |
| 2026-05-05 16:51 | 36.01795 | -81.88179 | 36119 ft | 425 kts | 358° |
| 2026-05-05 16:52 | 36.07707 | -81.87909 | 36120 ft | 425 kts | 358° |
| 2026-05-05 16:52 | 36.13597 | -81.87637 | 36117 ft | 423 kts | 358° |
| 2026-05-05 16:53 | 36.19478 | -81.87359 | 36109 ft | 423 kts | 358° |
| 2026-05-05 16:53 | 36.25366 | -81.87085 | 36111 ft | 423 kts | 358° |
| 2026-05-05 16:54 | 36.31253 | -81.86803 | 36103 ft | 423 kts | 358° |
| 2026-05-05 16:54 | 36.37151 | -81.86531 | 36095 ft | 424 kts | 357° |
| 2026-05-05 16:55 | 36.43006 | -81.86261 | 36089 ft | 424 kts | 358° |
| 2026-05-05 16:55 | 36.48899 | -81.85980 | 36081 ft | 424 kts | 358° |
| 2026-05-05 16:56 | 36.54790 | -81.85698 | 36081 ft | 423 kts | 358° |
| 2026-05-05 16:56 | 36.60686 | -81.85425 | 36071 ft | 424 kts | 358° |
| 2026-05-05 16:57 | 36.66588 | -81.85156 | 36066 ft | 424 kts | 358° |
| 2026-05-05 16:57 | 36.71485 | -81.84915 | 36056 ft | 423 kts | 358° |
| 2026-05-05 16:58 | 36.78331 | -81.84578 | 36058 ft | 424 kts | 358° |
| 2026-05-05 16:58 | 36.83282 | -81.84347 | 36054 ft | 425 kts | 358° |
| 2026-05-05 16:59 | 36.89201 | -81.84066 | 36061 ft | 426 kts | 358° |
| 2026-05-05 16:59 | 36.95095 | -81.83785 | 36064 ft | 426 kts | 358° |
| 2026-05-05 17:00 | 37.01031 | -81.83507 | 36066 ft | 426 kts | 358° |
| 2026-05-05 17:00 | 37.06956 | -81.83226 | 36061 ft | 426 kts | 358° |
| 2026-05-05 17:01 | 37.12895 | -81.82946 | 36064 ft | 427 kts | 358° |
| 2026-05-05 17:01 | 37.18838 | -81.82659 | 36061 ft | 428 kts | 358° |
| 2026-05-05 17:02 | 37.24801 | -81.82373 | 36067 ft | 429 kts | 358° |
| 2026-05-05 17:02 | 37.30767 | -81.82092 | 36069 ft | 429 kts | 358° |
| 2026-05-05 17:03 | 37.36746 | -81.81798 | 36070 ft | 430 kts | 358° |
| 2026-05-05 17:03 | 37.42688 | -81.81505 | 36065 ft | 430 kts | 358° |
| 2026-05-05 17:04 | 37.48724 | -81.81213 | 36071 ft | 431 kts | 358° |
| 2026-05-05 17:04 | 37.54679 | -81.80923 | 36071 ft | 431 kts | 357° |
| 2026-05-05 17:05 | 37.60666 | -81.80633 | 36069 ft | 430 kts | 357° |
| 2026-05-05 17:05 | 37.66645 | -81.80343 | 36066 ft | 430 kts | 357° |
| 2026-05-05 17:06 | 37.72622 | -81.80059 | 36056 ft | 430 kts | 357° |
| 2026-05-05 17:06 | 37.78607 | -81.79768 | 36042 ft | 430 kts | 357° |
| 2026-05-05 17:07 | 37.84595 | -81.79469 | 36026 ft | 430 kts | 357° |
| 2026-05-05 17:07 | 37.90576 | -81.79164 | 36023 ft | 429 kts | 357° |
| 2026-05-05 17:08 | 37.96550 | -81.78879 | 36018 ft | 431 kts | 357° |
| 2026-05-05 17:08 | 38.02548 | -81.78585 | 36021 ft | 431 kts | 357° |
| 2026-05-05 17:09 | 38.08535 | -81.78285 | 36017 ft | 431 kts | 357° |
| 2026-05-05 17:09 | 38.14533 | -81.77999 | 36011 ft | 431 kts | 357° |
| 2026-05-05 17:10 | 38.20531 | -81.77711 | 36006 ft | 432 kts | 357° |
| 2026-05-05 17:10 | 38.26500 | -81.77416 | 35991 ft | 432 kts | 357° |
| 2026-05-05 17:11 | 38.32497 | -81.77119 | 35982 ft | 431 kts | 358° |
| 2026-05-05 17:11 | 38.38460 | -81.75736 | 35971 ft | 441 kts | 11° |
| 2026-05-05 17:12 | 38.44359 | -81.73617 | 35964 ft | 441 kts | 11° |
| 2026-05-05 17:12 | 38.50264 | -81.71522 | 35960 ft | 440 kts | 10° |
| 2026-05-05 17:13 | 38.56174 | -81.69417 | 35955 ft | 441 kts | 10° |
| 2026-05-05 17:13 | 38.62091 | -81.67296 | 35954 ft | 441 kts | 10° |
| 2026-05-05 17:14 | 38.68008 | -81.65176 | 35950 ft | 442 kts | 11° |
| 2026-05-05 17:14 | 38.73928 | -81.63044 | 35945 ft | 442 kts | 11° |
| 2026-05-05 17:15 | 38.79859 | -81.60895 | 35935 ft | 443 kts | 11° |
| 2026-05-05 17:15 | 38.85792 | -81.58750 | 35932 ft | 444 kts | 11° |
| 2026-05-05 17:16 | 38.91712 | -81.56611 | 35926 ft | 445 kts | 11° |
| 2026-05-05 17:16 | 38.97681 | -81.54454 | 35923 ft | 446 kts | 11° |
| 2026-05-05 17:17 | 39.03655 | -81.52288 | 35916 ft | 446 kts | 11° |
| 2026-05-05 17:17 | 39.09636 | -81.50113 | 35912 ft | 447 kts | 11° |
| 2026-05-05 17:18 | 39.15620 | -81.47926 | 35910 ft | 447 kts | 11° |
| 2026-05-05 17:18 | 39.21609 | -81.45738 | 35901 ft | 447 kts | 11° |
| 2026-05-05 17:19 | 39.27598 | -81.43552 | 35898 ft | 447 kts | 11° |
| 2026-05-05 17:19 | 39.33592 | -81.41355 | 35896 ft | 448 kts | 11° |
| 2026-05-05 17:20 | 39.39592 | -81.39145 | 35896 ft | 448 kts | 11° |
| 2026-05-05 17:20 | 39.45584 | -81.37255 | 35890 ft | 443 kts | 2° |
| 2026-05-05 17:21 | 39.51701 | -81.36342 | 35886 ft | 443 kts | 2° |
| 2026-05-05 17:22 | 39.60908 | -81.34933 | 35889 ft | 445 kts | 2° |
| 2026-05-05 17:22 | 39.67068 | -81.33985 | 35885 ft | 445 kts | 2° |
| 2026-05-05 17:23 | 39.73225 | -81.33043 | 35888 ft | 446 kts | 2° |
| 2026-05-05 17:23 | 39.79392 | -81.32097 | 35890 ft | 446 kts | 2° |
| 2026-05-05 17:24 | 39.85560 | -81.31154 | 35892 ft | 447 kts | 2° |
| 2026-05-05 17:24 | 39.91707 | -81.30211 | 35185 ft | 452 kts | 2° |
| 2026-05-05 17:24 | 39.94909 | -81.29724 | 34111 ft | 460 kts | 2° |
| 2026-05-05 17:25 | 39.98046 | -81.29238 | 33248 ft | 462 kts | 2° |
| 2026-05-05 17:25 | 40.00166 | -81.28911 | 32655 ft | 462 kts | 2° |
| 2026-05-05 17:25 | 40.04467 | -81.28250 | 31203 ft | 468 kts | 3° |
| 2026-05-05 17:25 | 40.07722 | -81.27747 | 30185 ft | 471 kts | 3° |
| 2026-05-05 17:26 | 40.10991 | -81.27238 | 29061 ft | 475 kts | 4° |
| 2026-05-05 17:26 | 40.14285 | -81.26719 | 27821 ft | 479 kts | 4° |
| 2026-05-05 17:26 | 40.17603 | -81.26199 | 26669 ft | 480 kts | 4° |
| 2026-05-05 17:26 | 40.20928 | -81.25680 | 25391 ft | 483 kts | 4° |
| 2026-05-05 17:27 | 40.24276 | -81.25160 | 23993 ft | 486 kts | 4° |
| 2026-05-05 17:27 | 40.27635 | -81.24643 | 22968 ft | 483 kts | 4° |
| 2026-05-05 17:27 | 40.30949 | -81.24133 | 22083 ft | 476 kts | 4° |
| 2026-05-05 17:27 | 40.34216 | -81.23621 | 21172 ft | 470 kts | 5° |
| 2026-05-05 17:28 | 40.37447 | -81.23109 | 20262 ft | 465 kts | 5° |
| 2026-05-05 17:28 | 40.40645 | -81.22604 | 19372 ft | 460 kts | 5° |
| 2026-05-05 17:28 | 40.43806 | -81.22108 | 18500 ft | 455 kts | 5° |
| 2026-05-05 17:28 | 40.46939 | -81.21621 | 17642 ft | 451 kts | 4° |
| 2026-05-05 17:29 | 40.50047 | -81.21154 | 16819 ft | 447 kts | 4° |
| 2026-05-05 17:29 | 40.53123 | -81.20784 | 16003 ft | 442 kts | 2° |
| 2026-05-05 17:29 | 40.56182 | -81.20492 | 15189 ft | 438 kts | 1° |
| 2026-05-05 17:29 | 40.59174 | -81.20246 | 14419 ft | 434 kts | 1° |
| 2026-05-05 17:30 | 40.62176 | -81.20005 | 13666 ft | 430 kts | 1° |
| 2026-05-05 17:30 | 40.65141 | -81.19743 | 12884 ft | 425 kts | 1° |
| 2026-05-05 17:30 | 40.68086 | -81.19466 | 12125 ft | 423 kts | 1° |
| 2026-05-05 17:30 | 40.71003 | -81.19185 | 11698 ft | 412 kts | 1° |
| 2026-05-05 17:31 | 40.73786 | -81.18906 | 11575 ft | 393 kts | 1° |
| 2026-05-05 17:31 | 40.76464 | -81.18634 | 11266 ft | 379 kts | 1° |
| 2026-05-05 17:31 | 40.79078 | -81.18370 | 10880 ft | 370 kts | 1° |
| 2026-05-05 17:31 | 40.81586 | -81.18118 | 10738 ft | 354 kts | 1° |
| 2026-05-05 17:32 | 40.84000 | -81.17880 | 10586 ft | 341 kts | 1° |
| 2026-05-05 17:32 | 40.86319 | -81.17655 | 10444 ft | 329 kts | 1° |
| 2026-05-05 17:32 | 40.88538 | -81.17440 | 10288 ft | 318 kts | 1° |
| 2026-05-05 17:32 | 40.90705 | -81.17227 | 10165 ft | 306 kts | 1° |
| 2026-05-05 17:33 | 40.92819 | -81.17017 | 10025 ft | 296 kts | 0° |
| 2026-05-05 17:33 | 40.94827 | -81.16799 | 9654 ft | 296 kts | 4° |
| 2026-05-05 17:33 | 40.96765 | -81.15874 | 9246 ft | 302 kts | 31° |
| 2026-05-05 17:33 | 40.98401 | -81.14116 | 8854 ft | 302 kts | 40° |
| 2026-05-05 17:34 | 40.99952 | -81.12248 | 8438 ft | 301 kts | 41° |
| 2026-05-05 17:34 | 41.01482 | -81.10377 | 8035 ft | 297 kts | 41° |
| 2026-05-05 17:34 | 41.02998 | -81.08529 | 7642 ft | 297 kts | 41° |
| 2026-05-05 17:34 | 41.04515 | -81.06669 | 7238 ft | 296 kts | 41° |
| 2026-05-05 17:35 | 41.06140 | -81.05029 | 6838 ft | 291 kts | 23° |
| 2026-05-05 17:35 | 41.08058 | -81.04435 | 6428 ft | 280 kts | 355° |
| 2026-05-05 17:35 | 41.09896 | -81.05041 | 6036 ft | 269 kts | 328° |
| 2026-05-05 17:35 | 41.11331 | -81.06525 | 5639 ft | 258 kts | 306° |
| 2026-05-05 17:36 | 41.12258 | -81.08513 | 5235 ft | 253 kts | 288° |
| 2026-05-05 17:36 | 41.12625 | -81.10747 | 4833 ft | 247 kts | 269° |
| 2026-05-05 17:36 | 41.12428 | -81.12993 | 4427 ft | 244 kts | 252° |
| 2026-05-05 17:36 | 41.11719 | -81.14986 | 4028 ft | 242 kts | 235° |
| 2026-05-05 17:37 | 41.10621 | -81.16678 | 3624 ft | 241 kts | 227° |
| 2026-05-05 17:37 | 41.09862 | -81.17775 | 3357 ft | 236 kts | 228° |
| 2026-05-05 17:37 | 41.08439 | -81.19838 | 3003 ft | 219 kts | 227° |
| 2026-05-05 17:37 | 41.07468 | -81.21246 | 3038 ft | 194 kts | 227° |
| 2026-05-05 17:38 | 41.06596 | -81.22509 | 3007 ft | 176 kts | 227° |
| 2026-05-05 17:38 | 41.05817 | -81.23638 | 2993 ft | 155 kts | 228° |
| 2026-05-05 17:38 | 41.05119 | -81.24648 | 2992 ft | 144 kts | 228° |
| 2026-05-05 17:38 | 41.04453 | -81.25613 | 2993 ft | 140 kts | 228° |
| 2026-05-05 17:39 | 41.03798 | -81.26560 | 2997 ft | 139 kts | 227° |
| 2026-05-05 17:39 | 41.03146 | -81.27504 | 3003 ft | 139 kts | 228° |
| 2026-05-05 17:39 | 41.02495 | -81.28444 | 3000 ft | 138 kts | 228° |
| 2026-05-05 17:39 | 41.01848 | -81.29380 | 3000 ft | 138 kts | 227° |
| 2026-05-05 17:40 | 41.01200 | -81.30316 | 3008 ft | 138 kts | 227° |
| 2026-05-05 17:40 | 41.00552 | -81.31253 | 3007 ft | 138 kts | 228° |
| 2026-05-05 17:40 | 40.99903 | -81.32187 | 3007 ft | 138 kts | 227° |
| 2026-05-05 17:40 | 40.99255 | -81.33123 | 3014 ft | 138 kts | 227° |
| 2026-05-05 17:41 | 40.98604 | -81.34064 | 2992 ft | 138 kts | 227° |
| 2026-05-05 17:41 | 40.97955 | -81.35000 | 2900 ft | 138 kts | 227° |
| 2026-05-05 17:41 | 40.97303 | -81.35940 | 2756 ft | 138 kts | 227° |
| 2026-05-05 17:41 | 40.96652 | -81.36877 | 2571 ft | 137 kts | 227° |
| 2026-05-05 17:42 | 40.96004 | -81.37813 | 2404 ft | 139 kts | 227° |
| 2026-05-05 17:42 | 40.95370 | -81.38726 | 2239 ft | 133 kts | 227° |
| 2026-05-05 17:42 | 40.94753 | -81.39616 | 2051 ft | 130 kts | 227° |
| 2026-05-05 17:42 | 40.94145 | -81.40490 | 1876 ft | 129 kts | 227° |
| 2026-05-05 17:43 | 40.93538 | -81.41363 | 1706 ft | 129 kts | 227° |
| 2026-05-05 17:43 | 40.92929 | -81.42227 | 1572 ft | 128 kts | 226° |
| 2026-05-05 17:43 | 40.92323 | -81.43106 | 1381 ft | 128 kts | 230° |
| 2026-05-05 17:43 | 40.91928 | -81.43687 | 1250 ft | 127 kts | 228° |
| 2026-05-05 17:44 | 40.91382 | -81.44466 | 1221 ft | 101 kts | 227° |
| 2026-05-05 17:44 | 40.91114 | -81.44788 | 1220 ft | 20 kts | 166° |
| 2026-05-05 17:44 | 40.91071 | -81.44736 | 1222 ft | 7 kts | 116° |
| 2026-05-05 17:44 | 40.91078 | -81.44657 | 1222 ft | 15 kts | 81° |
| 2026-05-05 17:45 | 40.91076 | -81.44524 | 1223 ft | 15 kts | 89° |
| 2026-05-05 17:45 | 40.91073 | -81.44378 | 1223 ft | 17 kts | 93° |
| 2026-05-05 17:45 | 40.91071 | -81.44213 | 1221 ft | 20 kts | 91° |
| 2026-05-05 17:45 | 40.91066 | -81.44027 | 1221 ft | 18 kts | 81° |
| 2026-05-05 17:46 | 40.91157 | -81.43959 | 1223 ft | 15 kts | 13° |
| 2026-05-05 17:46 | 40.91253 | -81.43905 | 1223 ft | 15 kts | 23° |
| 2026-05-05 17:46 | 40.91346 | -81.43851 | 1223 ft | 12 kts | 26° |
| 2026-05-05 17:46 | 40.91365 | -81.43776 | 1223 ft | 9 kts | 97° |
| 2026-05-05 17:47 | 40.91362 | -81.43718 | 1223 ft | 0 kts | 95° |